Time;durP1;ratioP1;P1;durP2;ratioP2;P2;SDS_P1;SDS_P2;PMS_P1;PMS_P2;Temp;Humidity;BMP_temperature;BMP_pressure;BME280_temperature;BME280_humidity;BME280_pressure;Samples;Min_cycle;Max_cycle;Signal;HPM_P1;HPM_P2
2023/03/20 00:00:37;;;;;;;14.07;5.60;;;;;;;16.48;49.80;102021.97;5050796;28;20032;-66
2023/03/20 00:03:03;;;;;;;19.67;6.90;;;;;;;15.94;51.02;102019.22;5048950;28;20457;-67
2023/03/20 00:05:30;;;;;;;15.20;7.03;;;;;;;15.65;51.58;102013.41;5050080;28;20060;-66
2023/03/20 00:07:56;;;;;;;24.07;7.57;;;;;;;16.24;50.25;101998.56;5049525;28;20028;-66
2023/03/20 00:10:28;;;;;;;18.87;6.80;;;;;;;15.85;50.03;102000.00;5048236;28;20050;-66
2023/03/20 00:12:56;;;;;;;20.63;7.77;;;;;;;15.89;50.32;101996.44;5048965;28;20029;-66
2023/03/20 00:15:39;;;;;;;18.50;7.70;;;;;;;15.83;50.60;102007.09;5048799;28;20845;-66
2023/03/20 00:18:25;;;;;;;13.27;7.87;;;;;;;15.29;50.98;102005.94;5047612;28;20044;-67
2023/03/20 00:20:52;;;;;;;24.47;9.23;;;;;;;15.05;51.50;102013.19;5049803;28;20055;-66
2023/03/20 00:23:18;;;;;;;17.97;7.73;;;;;;;15.35;50.54;102026.94;5048794;28;20025;-66
2023/03/20 00:25:46;;;;;;;18.03;7.87;;;;;;;16.03;49.48;102031.41;5049566;28;20051;-66
2023/03/20 00:28:37;;;;;;;16.10;7.43;;;;;;;14.92;51.12;102032.66;5050086;28;20064;-67
2023/03/20 00:31:05;;;;;;;19.03;7.07;;;;;;;15.83;49.25;102041.34;5048369;28;20029;-66
2023/03/20 00:33:31;;;;;;;20.47;7.97;;;;;;;15.05;50.80;102050.06;5048274;28;20455;-66
2023/03/20 00:35:57;;;;;;;22.50;8.23;;;;;;;15.91;49.21;102055.31;5048702;28;20139;-66
2023/03/20 00:38:23;;;;;;;18.50;7.07;;;;;;;15.63;49.48;102052.97;5048424;28;20442;-66
2023/03/20 00:40:49;;;;;;;24.10;7.87;;;;;;;15.31;50.03;102051.56;5048016;28;20456;-66
2023/03/20 00:43:15;;;;;;;20.37;7.20;;;;;;;15.80;48.70;102036.09;5049615;28;20025;-66
2023/03/20 00:45:42;;;;;;;16.60;7.47;;;;;;;16.13;48.02;102026.88;5048100;28;20028;-66
2023/03/20 00:48:13;;;;;;;22.07;7.73;;;;;;;16.15;47.85;102013.66;5047833;28;20114;-66
2023/03/20 00:50:39;;;;;;;28.23;8.13;;;;;;;15.71;48.97;102027.38;5048641;28;20029;-66
2023/03/20 00:53:05;;;;;;;16.83;7.50;;;;;;;15.71;48.58;102040.56;5048082;28;20032;-66
2023/03/20 00:55:30;;;;;;;18.63;7.63;;;;;;;15.65;48.93;102035.38;5048568;28;20496;-66
2023/03/20 00:57:59;;;;;;;25.27;8.00;;;;;;;15.49;49.28;102033.81;5049486;28;20036;-67
2023/03/20 01:00:40;;;;;;;27.97;8.23;;;;;;;16.43;47.46;102011.47;5048629;28;20104;-66
2023/03/20 01:03:21;;;;;;;22.97;8.47;;;;;;;15.89;48.15;102014.91;5048806;28;20564;-66
2023/03/20 01:05:46;;;;;;;21.63;8.50;;;;;;;15.64;48.77;102016.97;5049251;28;20032;-66
2023/03/20 01:08:17;;;;;;;20.73;9.13;;;;;;;15.63;48.91;102008.16;5047411;28;20029;-66
2023/03/20 01:10:49;;;;;;;20.73;9.17;;;;;;;14.81;51.16;102002.88;5048426;28;20071;-67
2023/03/20 01:13:29;;;;;;;26.77;10.03;;;;;;;14.69;52.70;102004.75;5048891;28;20446;-67
2023/03/20 01:15:56;;;;;;;29.77;9.60;;;;;;;15.17;51.75;102011.34;5063751;28;20146;-66
2023/03/20 01:18:23;;;;;;;19.40;9.37;;;;;;;15.23;50.45;102011.25;5047679;28;20432;-66
2023/03/20 01:20:49;;;;;;;28.37;10.20;;;;;;;15.02;51.31;102007.97;5047031;28;20033;-66
2023/03/20 01:23:15;;;;;;;25.33;10.80;;;;;;;15.36;50.86;102002.34;5048838;28;20071;-66
2023/03/20 01:25:41;;;;;;;29.57;11.00;;;;;;;15.58;49.59;102012.63;5047814;28;20025;-67
2023/03/20 01:28:17;;;;;;;37.57;13.23;;;;;;;14.95;51.89;102035.25;5047791;28;20547;-66
2023/03/20 01:30:43;;;;;;;29.23;11.67;;;;;;;15.54;50.96;102039.91;5049364;28;20033;-66
2023/03/20 01:33:20;;;;;;;30.53;12.60;;;;;;;15.66;50.15;102031.88;5048341;28;20074;-67
2023/03/20 01:35:47;;;;;;;28.00;11.53;;;;;;;15.43;50.17;102040.88;5047125;28;20025;-66
2023/03/20 01:38:15;;;;;;;32.70;13.03;;;;;;;15.73;49.54;102054.63;5047269;28;20033;-67
2023/03/20 01:40:53;;;;;;;25.03;11.57;;;;;;;15.90;48.98;102059.69;5047694;28;20025;-66
2023/03/20 01:43:21;;;;;;;29.73;11.57;;;;;;;15.40;50.53;102061.13;5046568;28;20044;-66
2023/03/20 01:45:54;;;;;;;31.83;12.13;;;;;;;15.46;50.22;102060.22;5048538;28;20059;-66
2023/03/20 01:48:22;;;;;;;36.93;11.73;;;;;;;15.93;49.11;102053.50;5063574;28;20052;-66
2023/03/20 01:50:48;;;;;;;32.47;12.57;;;;;;;16.08;48.55;102055.06;5048061;28;20036;-66
2023/03/20 01:53:13;;;;;;;25.10;12.53;;;;;;;15.81;48.49;102045.75;5048332;28;20048;-66
2023/03/20 01:55:42;;;;;;;39.10;12.87;;;;;;;15.16;50.67;102054.34;5047462;28;20181;-67
2023/03/20 01:58:14;;;;;;;27.47;11.57;;;;;;;15.69;49.08;102039.72;5062856;28;20037;-66
2023/03/20 02:00:40;;;;;;;28.98;11.77;;;;;;;15.63;49.83;102033.66;5047541;28;20036;-66
2023/03/20 02:03:08;;;;;;;34.23;12.47;;;;;;;14.98;49.86;102035.22;5045862;28;20033;-66
2023/03/20 02:05:35;;;;;;;26.10;10.50;;;;;;;14.84;50.87;102037.97;5063490;28;20032;-66
2023/03/20 02:08:23;;;;;;;29.83;11.63;;;;;;;15.22;49.61;102041.13;5048530;28;20511;-67
2023/03/20 02:10:49;;;;;;;24.73;11.43;;;;;;;14.23;51.66;102041.88;5046286;28;20013;-67
2023/03/20 02:13:15;;;;;;;29.60;11.63;;;;;;;15.49;49.44;102028.53;5048158;28;20028;-66
2023/03/20 02:16:06;;;;;;;25.53;11.00;;;;;;;14.99;50.67;102029.06;5047170;28;20063;-66
2023/03/20 02:18:32;;;;;;;27.93;10.93;;;;;;;15.69;48.60;102025.66;5047970;28;20029;-67
2023/03/20 02:21:20;;;;;;;26.63;11.23;;;;;;;15.13;49.83;102017.53;5046889;28;20021;-66
2023/03/20 02:24:20;;;;;;;23.07;10.93;;;;;;;15.23;49.74;102004.22;5046893;28;20486;-66
2023/03/20 02:27:00;;;;;;;22.90;10.80;;;;;;;15.23;49.90;101992.81;5047155;28;20474;-66
2023/03/20 02:30:06;;;;;;;25.30;11.30;;;;;;;15.01;50.48;101994.81;5046605;28;20036;-66
2023/03/20 02:32:34;;;;;;;21.70;10.97;;;;;;;15.19;49.51;101999.00;5044054;28;20036;-67
2023/03/20 02:35:00;;;;;;;22.87;11.63;;;;;;;15.44;49.44;101995.22;5046855;28;20029;-67
2023/03/20 02:37:37;;;;;;;29.10;11.10;;;;;;;15.04;50.10;101985.13;5047896;28;20028;-66
2023/03/20 02:40:11;;;;;;;24.93;11.80;;;;;;;14.70;51.08;101969.66;5045716;28;20127;-66
2023/03/20 02:42:55;;;;;;;36.13;12.97;;;;;;;14.45;52.22;101973.34;5048630;28;20148;-66
2023/03/20 02:45:24;;;;;;;31.00;12.80;;;;;;;14.58;51.85;101969.75;5045804;28;20041;-66
2023/03/20 02:48:18;;;;;;;31.63;13.07;;;;;;;14.72;51.63;101985.44;5046551;28;20128;-66
2023/03/20 02:50:54;;;;;;;30.60;12.80;;;;;;;15.28;49.68;101977.84;5047197;28;20029;-66
2023/03/20 02:53:38;;;;;;;32.03;13.20;;;;;;;14.65;51.44;101981.97;5062358;28;20484;-66
2023/03/20 02:56:20;;;;;;;25.13;12.63;;;;;;;14.38;51.81;101989.19;5062692;28;20029;-66
2023/03/20 02:58:59;;;;;;;29.27;12.17;;;;;;;13.78;53.38;101983.41;5048073;28;20104;-66
2023/03/20 03:01:30;;;;;;;23.83;11.97;;;;;;;14.07;52.84;101978.88;5045712;28;20029;-66
2023/03/20 03:04:01;;;;;;;23.13;11.53;;;;;;;14.81;50.73;101971.31;5046693;28;20032;-67
2023/03/20 03:06:31;;;;;;;26.63;12.17;;;;;;;14.48;52.09;101962.78;5045826;28;20103;-66
2023/03/20 03:09:16;;;;;;;26.30;11.87;;;;;;;14.02;52.77;101964.88;5046657;28;20025;-66
2023/03/20 03:11:48;;;;;;;27.53;12.20;;;;;;;14.62;51.34;101963.56;5046912;28;20439;-67
2023/03/20 03:14:19;;;;;;;24.02;12.48;;;;;;;14.86;50.37;101974.78;5062152;28;20617;-66
2023/03/20 03:16:48;;;;;;;23.37;11.13;;;;;;;14.52;51.80;101969.78;5048726;28;20069;-66
2023/03/20 03:19:18;;;;;;;31.90;12.10;;;;;;;14.84;50.37;101971.31;5049719;28;20032;-66
2023/03/20 03:21:46;;;;;;;24.77;11.13;;;;;;;14.32;52.53;101960.28;5050899;28;20036;-66
2023/03/20 03:24:28;;;;;;;30.43;11.77;;;;;;;14.36;52.21;101954.13;5051188;28;20028;-66
2023/03/20 03:26:58;;;;;;;28.70;11.73;;;;;;;13.56;53.35;101954.66;5049860;28;20124;-66
2023/03/20 03:29:26;;;;;;;23.17;11.30;;;;;;;13.10;54.77;101954.78;5049117;28;20176;-66
2023/03/20 03:31:53;;;;;;;27.33;11.57;;;;;;;14.25;52.41;101945.47;5051173;28;20104;-67
2023/03/20 03:34:21;;;;;;;23.03;10.60;;;;;;;14.63;51.37;101957.47;5050366;28;20361;-66
2023/03/20 03:37:06;;;;;;;27.13;11.67;;;;;;;14.08;52.91;101938.56;5050978;28;20527;-66
2023/03/20 03:40:07;;;;;;;22.27;11.27;;;;;;;13.67;54.74;101942.31;5050145;28;20516;-66
2023/03/20 03:42:40;;;;;;;29.57;11.13;;;;;;;13.55;55.38;101939.75;5027461;28;20033;-66
2023/03/20 03:45:14;;;;;;;25.23;11.73;;;;;;;14.24;53.63;101934.03;5065631;28;20027;-66
2023/03/20 03:48:00;;;;;;;25.93;10.97;;;;;;;14.18;53.20;101938.50;5049688;28;20040;-66
2023/03/20 03:50:35;;;;;;;20.90;10.27;;;;;;;14.76;51.27;101935.38;5048422;28;20025;-66
2023/03/20 03:53:06;;;;;;;21.13;10.87;;;;;;;14.52;52.38;101932.94;5050902;28;20064;-66
2023/03/20 03:55:38;;;;;;;28.23;11.70;;;;;;;14.14;52.92;101929.75;5048919;28;20093;-66
2023/03/20 03:58:16;;;;;;;24.30;10.97;;;;;;;14.25;53.63;101924.41;5050215;28;20028;-66
2023/03/20 04:00:46;;;;;;;21.57;10.73;;;;;;;14.43;52.20;101923.38;5050999;28;20043;-66
2023/03/20 04:03:12;;;;;;;22.50;11.87;;;;;;;13.88;53.74;101919.44;5049801;28;20497;-66
2023/03/20 04:05:42;;;;;;;22.17;11.17;;;;;;;13.37;54.72;101923.19;5050828;28;20025;-66
2023/03/20 04:08:07;;;;;;;25.67;10.73;;;;;;;13.42;55.43;101924.94;5048575;28;20500;-66
2023/03/20 04:10:33;;;;;;;28.23;11.80;;;;;;;12.90;57.29;101917.19;5050111;28;20039;-66
2023/03/20 04:12:58;;;;;;;23.27;11.60;;;;;;;13.94;55.75;101908.84;5049064;28;20028;-66
2023/03/20 04:15:26;;;;;;;20.43;11.40;;;;;;;13.93;54.23;101896.63;5048708;28;20016;-66
2023/03/20 04:17:52;;;;;;;27.10;12.20;;;;;;;14.13;54.36;101911.38;5048391;28;20021;-66
2023/03/20 04:20:17;;;;;;;26.00;11.67;;;;;;;13.84;55.17;101920.34;5050179;28;20476;-66
2023/03/20 04:22:43;;;;;;;28.03;11.57;;;;;;;14.54;52.92;101915.41;5066103;28;20547;-66
2023/03/20 04:25:14;;;;;;;19.80;10.10;;;;;;;14.23;53.70;101916.56;5047332;28;20112;-66
2023/03/20 04:27:39;;;;;;;19.70;10.90;;;;;;;14.22;53.92;101921.81;5048605;28;20493;-66
2023/03/20 04:30:05;;;;;;;20.47;11.60;;;;;;;14.65;51.97;101918.84;5048338;28;20036;-66
2023/03/20 04:32:31;;;;;;;22.37;11.27;;;;;;;13.85;54.55;101929.97;5048343;28;20450;-66
2023/03/20 04:34:56;;;;;;;25.03;11.60;;;;;;;13.63;56.01;101930.09;5048673;28;20033;-66
2023/03/20 04:37:22;;;;;;;24.17;11.03;;;;;;;14.40;52.87;101923.44;5048170;28;20482;-66
2023/03/20 04:39:47;;;;;;;19.90;11.47;;;;;;;14.38;52.75;101918.19;5064639;28;20021;-66
2023/03/20 04:42:12;;;;;;;28.97;12.50;;;;;;;14.20;53.78;101915.69;5048543;28;20020;-67
2023/03/20 04:44:38;;;;;;;24.80;12.93;;;;;;;14.74;52.09;101910.84;5064708;28;20127;-66
2023/03/20 04:47:03;;;;;;;27.57;12.10;;;;;;;13.47;55.96;101907.41;5049183;28;20085;-66
2023/03/20 04:49:28;;;;;;;23.30;11.13;;;;;;;14.05;54.00;101901.78;5050082;28;20024;-66
2023/03/20 04:51:55;;;;;;;26.00;11.87;;;;;;;13.88;54.78;101898.41;5048888;28;20067;-66
2023/03/20 04:54:20;;;;;;;22.27;12.20;;;;;;;14.43;52.73;101905.84;5049549;28;20538;-66
2023/03/20 04:56:46;;;;;;;23.47;12.30;;;;;;;14.36;52.62;101891.00;5049437;28;20025;-67
2023/03/20 04:59:12;;;;;;;25.60;11.83;;;;;;;14.19;53.23;101887.66;5048605;28;20381;-66
2023/03/20 05:01:37;;;;;;;29.20;12.53;;;;;;;13.99;53.56;101887.81;5049967;28;20036;-66
2023/03/20 05:04:03;;;;;;;24.97;12.83;;;;;;;13.77;54.99;101884.47;5047840;28;20028;-66
2023/03/20 05:06:33;;;;;;;29.20;12.20;;;;;;;13.80;54.78;101877.41;5047575;28;20016;-66
2023/03/20 05:08:59;;;;;;;24.30;12.33;;;;;;;13.99;53.97;101874.69;5049206;28;20029;-66
2023/03/20 05:11:25;;;;;;;28.20;13.53;;;;;;;13.96;54.68;101879.94;5047622;28;20028;-66
2023/03/20 05:13:50;;;;;;;24.83;12.40;;;;;;;14.13;54.71;101877.19;5047358;28;20029;-66
2023/03/20 05:16:16;;;;;;;23.80;12.77;;;;;;;13.73;56.10;101884.47;5048869;28;20032;-66
2023/03/20 05:18:41;;;;;;;26.53;12.47;;;;;;;13.43;55.68;101887.28;5049531;28;20071;-66
2023/03/20 05:21:07;;;;;;;28.57;13.07;;;;;;;14.66;53.46;101886.38;5046391;28;20033;-66
2023/03/20 05:23:33;;;;;;;32.97;13.23;;;;;;;14.10;53.44;101887.75;5048166;28;20025;-66
2023/03/20 05:25:58;;;;;;;27.00;13.90;;;;;;;14.53;53.63;101892.59;5047477;28;20075;-66
2023/03/20 05:28:24;;;;;;;27.07;12.30;;;;;;;14.35;54.32;101893.66;5048083;28;20025;-66
2023/03/20 05:30:49;;;;;;;29.73;12.57;;;;;;;13.86;55.26;101887.00;5047531;28;20067;-66
2023/03/20 05:33:15;;;;;;;28.40;12.97;;;;;;;13.38;56.46;101898.69;5047433;28;20021;-66
2023/03/20 05:35:41;;;;;;;26.40;11.93;;;;;;;14.27;54.66;101900.75;5048507;28;20058;-66
2023/03/20 05:38:06;;;;;;;27.43;11.87;;;;;;;14.00;55.06;101902.69;5046944;28;20028;-66
2023/03/20 05:40:31;;;;;;;21.47;12.57;;;;;;;13.71;56.23;101896.75;5048438;28;20384;-66
2023/03/20 05:42:57;;;;;;;22.90;12.67;;;;;;;13.45;57.29;101909.16;5046485;28;20472;-66
2023/03/20 05:45:22;;;;;;;29.33;12.40;;;;;;;13.37;57.20;101894.31;5048586;28;20292;-66
2023/03/20 05:47:48;;;;;;;37.37;13.63;;;;;;;14.14;53.94;101900.84;5047054;28;20041;-66
2023/03/20 05:50:13;;;;;;;36.97;12.87;;;;;;;14.34;54.13;101903.31;5046596;28;20070;-66
2023/03/20 05:52:39;;;;;;;31.80;12.70;;;;;;;13.96;55.71;101901.84;5047410;28;20142;-66
2023/03/20 05:55:05;;;;;;;27.87;12.10;;;;;;;14.41;54.28;101907.63;5047396;28;20021;-66
2023/03/20 05:57:30;;;;;;;31.80;12.30;;;;;;;15.01;52.52;101911.44;5047462;28;20068;-66
2023/03/20 05:59:56;;;;;;;29.13;12.10;;;;;;;14.67;52.48;101917.06;5047232;28;20068;-66
2023/03/20 06:02:22;;;;;;;26.67;12.70;;;;;;;15.22;51.61;101909.44;5047723;28;20028;-65
2023/03/20 06:04:47;;;;;;;29.40;12.97;;;;;;;14.66;52.37;101910.06;5047173;28;20021;-65
2023/03/20 06:07:12;;;;;;;31.30;12.47;;;;;;;13.89;54.57;101915.94;5048118;28;20032;-65
2023/03/20 06:09:38;;;;;;;30.13;13.50;;;;;;;14.86;52.04;101916.88;5046800;28;20021;-65
2023/03/20 06:12:03;;;;;;;30.87;12.93;;;;;;;14.26;52.86;101918.28;5047947;28;20430;-65
2023/03/20 06:14:29;;;;;;;29.53;11.73;;;;;;;13.79;54.62;101924.72;5047384;28;20017;-65
2023/03/20 06:16:55;;;;;;;22.03;11.63;;;;;;;13.73;55.57;101929.13;5046392;28;20070;-65
2023/03/20 06:19:22;;;;;;;27.93;12.67;;;;;;;14.71;52.96;101934.56;5048166;28;20021;-66
2023/03/20 06:21:48;;;;;;;28.43;12.33;;;;;;;14.86;52.57;101943.19;5046919;28;20120;-65
2023/03/20 06:24:14;;;;;;;23.10;12.53;;;;;;;14.90;51.68;101939.63;5062844;28;20025;-66
2023/03/20 06:26:39;;;;;;;31.57;11.40;;;;;;;14.69;52.77;101938.97;5047157;28;20028;-66
2023/03/20 06:29:05;;;;;;;26.20;12.23;;;;;;;14.57;53.60;101939.03;5046304;28;20728;-66
2023/03/20 06:31:30;;;;;;;29.87;11.87;;;;;;;14.23;54.15;101941.94;5046473;28;20031;-66
2023/03/20 06:33:56;;;;;;;23.97;10.80;;;;;;;14.02;54.34;101946.47;5046817;28;20024;-66
2023/03/20 06:36:22;;;;;;;27.03;12.40;;;;;;;14.18;54.48;101938.50;5047949;28;20655;-66
2023/03/20 06:38:47;;;;;;;28.70;10.83;;;;;;;14.24;53.58;101943.72;5046093;28;20021;-65
2023/03/20 06:41:12;;;;;;;25.17;10.37;;;;;;;14.70;52.81;101951.25;5046539;28;20370;-66
2023/03/20 06:43:38;;;;;;;24.03;10.10;;;;;;;13.79;54.90;101940.50;5047205;28;20025;-66
2023/03/20 06:46:04;;;;;;;20.93;9.60;;;;;;;14.47;53.59;101947.91;5045268;28;20119;-68
2023/03/20 06:48:30;;;;;;;30.63;10.00;;;;;;;14.74;52.77;101946.81;5046808;28;20098;-66
2023/03/20 06:50:55;;;;;;;26.47;9.40;;;;;;;14.42;53.02;101946.19;5048911;28;20434;-65
2023/03/20 06:53:21;;;;;;;20.60;9.77;;;;;;;14.34;54.28;101944.50;5049588;28;20077;-66
2023/03/20 06:55:48;;;;;;;25.20;9.13;;;;;;;13.62;55.78;101957.22;5052069;28;20396;-66
2023/03/20 06:58:14;;;;;;;19.67;9.43;;;;;;;15.13;51.48;101954.34;5049732;28;20024;-66
2023/03/20 07:00:39;;;;;;;21.73;10.00;;;;;;;14.12;54.46;101954.31;5050759;28;20031;-66
2023/03/20 07:03:05;;;;;;;24.40;9.90;;;;;;;14.36;53.33;101954.13;5049881;28;20029;-66
2023/03/20 07:05:31;;;;;;;23.37;9.07;;;;;;;14.80;52.90;101956.44;5049918;28;20025;-66
2023/03/20 07:07:56;;;;;;;21.47;9.40;;;;;;;14.42;52.68;101958.47;5051733;28;20147;-66
2023/03/20 07:10:23;;;;;;;19.03;8.83;;;;;;;14.30;52.97;101951.56;5050021;28;20396;-66
2023/03/20 07:12:49;;;;;;;23.73;9.13;;;;;;;15.10;51.70;101948.19;5050848;28;20130;-66
2023/03/20 07:15:15;;;;;;;20.20;8.30;;;;;;;14.25;53.58;101948.09;5049981;28;20017;-66
2023/03/20 07:17:41;;;;;;;19.07;9.23;;;;;;;13.86;54.63;101953.59;5050596;28;20079;-66
2023/03/20 07:20:07;;;;;;;21.10;8.30;;;;;;;13.34;55.91;101949.44;5050081;28;20116;-65
2023/03/20 07:22:32;;;;;;;16.07;8.43;;;;;;;13.84;55.53;101943.97;5050446;28;20031;-66
2023/03/20 07:24:58;;;;;;;20.87;8.30;;;;;;;14.00;54.13;101944.75;5049911;28;20021;-66
2023/03/20 07:27:25;;;;;;;18.87;7.50;;;;;;;14.14;53.32;101944.66;5048805;28;20025;-65
2023/03/20 07:29:51;;;;;;;21.43;7.93;;;;;;;13.67;55.34;101952.84;5051245;28;20494;-65
2023/03/20 07:32:16;;;;;;;22.23;8.63;;;;;;;14.49;53.45;101951.41;5050970;28;20096;-65
2023/03/20 07:34:42;;;;;;;21.27;7.57;;;;;;;14.30;53.29;101954.19;5049498;28;20029;-66
2023/03/20 07:37:08;;;;;;;15.20;6.23;;;;;;;14.99;51.11;101955.34;5049195;28;20496;-66
2023/03/20 07:39:33;;;;;;;15.03;6.83;;;;;;;15.06;51.87;101957.00;5051559;28;20044;-66
2023/03/20 07:41:59;;;;;;;16.83;6.60;;;;;;;13.87;54.35;101964.97;5050289;28;20496;-66
2023/03/20 07:44:24;;;;;;;14.97;6.03;;;;;;;14.22;54.66;101961.25;5049310;28;20021;-66
2023/03/20 07:46:50;;;;;;;22.20;6.83;;;;;;;14.74;52.40;101960.84;5050674;28;20057;-66
2023/03/20 07:49:19;;;;;;;20.67;6.53;;;;;;;13.64;53.99;101963.38;5049970;28;20021;-65
2023/03/20 07:51:48;;;;;;;15.53;6.00;;;;;;;14.73;53.41;101969.63;5049783;28;20436;-65
2023/03/20 07:54:14;;;;;;;14.50;6.13;;;;;;;13.71;55.86;101965.06;5050492;28;20052;-65
2023/03/20 07:56:40;;;;;;;22.27;6.60;;;;;;;13.60;57.18;101964.25;5049145;28;20025;-65
2023/03/20 07:59:06;;;;;;;14.60;6.10;;;;;;;14.10;55.87;101961.34;5048834;28;20097;-65
2023/03/20 08:01:32;;;;;;;18.67;7.30;;;;;;;14.16;56.25;101962.16;5049380;28;20651;-66
2023/03/20 08:03:57;;;;;;;14.97;7.17;;;;;;;14.18;56.40;101964.81;5049853;28;20612;-65
2023/03/20 08:06:22;;;;;;;18.07;6.30;;;;;;;13.78;57.79;101976.44;5049008;28;20057;-66
2023/03/20 08:08:51;;;;;;;23.50;7.27;;;;;;;14.22;56.66;101966.53;5048474;28;20017;-66
2023/03/20 08:11:17;;;;;;;19.90;7.87;;;;;;;14.02;57.65;101970.13;5048896;28;20093;-66
2023/03/20 08:13:42;;;;;;;13.73;6.73;;;;;;;13.18;61.59;101981.88;5050965;28;20029;-65
2023/03/20 08:16:08;;;;;;;21.10;7.03;;;;;;;13.62;61.48;101986.13;5049108;28;20075;-65
2023/03/20 08:18:34;;;;;;;19.20;6.90;;;;;;;15.12;55.75;101971.88;5050679;28;20016;-65
2023/03/20 08:20:59;;;;;;;17.43;6.73;;;;;;;14.61;56.41;101974.97;5048881;28;20507;-66
2023/03/20 08:23:25;;;;;;;19.23;6.77;;;;;;;12.98;62.40;101972.31;5048063;28;20090;-66
2023/03/20 08:25:52;;;;;;;22.37;6.93;;;;;;;14.24;60.38;101975.25;5048859;28;20036;-66
2023/03/20 08:28:18;;;;;;;18.00;7.03;;;;;;;14.06;60.93;101965.75;5048682;28;20021;-66
2023/03/20 08:30:43;;;;;;;24.60;7.27;;;;;;;14.22;58.49;101966.53;5048252;28;20033;-66
2023/03/20 08:33:09;;;;;;;26.80;7.47;;;;;;;14.89;58.44;101977.38;5064928;28;20065;-66
2023/03/20 08:35:35;;;;;;;21.70;7.20;;;;;;;15.18;57.05;101969.19;5049119;28;20028;-66
2023/03/20 08:38:01;;;;;;;15.67;6.73;;;;;;;14.76;58.80;101964.34;5049219;28;20033;-66
2023/03/20 08:40:26;;;;;;;22.10;7.77;;;;;;;14.37;59.04;101966.41;5049747;28;20062;-66
2023/03/20 08:42:52;;;;;;;23.87;8.20;;;;;;;14.65;59.90;101966.19;5048627;28;20074;-66
2023/03/20 08:45:17;;;;;;;20.73;8.50;;;;;;;14.25;61.27;101966.50;5047357;28;20078;-66
2023/03/20 08:47:42;;;;;;;17.47;6.77;;;;;;;13.83;62.28;101963.25;5049844;28;20227;-66
2023/03/20 08:50:09;;;;;;;18.73;7.00;;;;;;;13.76;61.98;101972.06;5049142;28;20120;-66
2023/03/20 08:52:35;;;;;;;23.60;7.60;;;;;;;13.97;63.62;101971.94;5049458;28;20075;-65
2023/03/20 08:55:00;;;;;;;27.03;7.73;;;;;;;14.61;60.74;101967.06;5049782;28;20083;-65
2023/03/20 08:57:26;;;;;;;29.03;8.17;;;;;;;14.19;60.96;101966.53;5049620;28;20025;-66
2023/03/20 08:59:51;;;;;;;20.50;9.00;;;;;;;13.80;63.64;101963.28;5047339;28;20040;-65
2023/03/20 09:02:17;;;;;;;20.27;8.70;;;;;;;14.00;61.87;101965.78;5048323;28;20128;-67
2023/03/20 09:04:42;;;;;;;19.13;7.57;;;;;;;13.90;62.71;101954.44;5049640;28;20025;-65
2023/03/20 09:07:07;;;;;;;20.23;8.47;;;;;;;14.05;64.20;101957.00;5048284;28;20024;-65
2023/03/20 09:09:33;;;;;;;23.40;8.20;;;;;;;14.73;61.66;101952.97;5049665;28;20043;-65
2023/03/20 09:11:59;;;;;;;26.00;8.10;;;;;;;14.97;59.56;101956.25;5048544;28;20108;-65
2023/03/20 09:14:26;;;;;;;24.97;8.43;;;;;;;15.74;57.13;101952.66;5048950;28;20542;-65
2023/03/20 09:16:51;;;;;;;25.73;8.33;;;;;;;15.17;58.28;101953.41;5047847;28;20033;-65
2023/03/20 09:19:18;;;;;;;23.87;8.60;;;;;;;15.19;59.22;101956.88;5046774;28;20447;-65
2023/03/20 09:21:43;;;;;;;21.83;8.47;;;;;;;14.93;58.52;101956.28;5049538;28;20432;-65
2023/03/20 09:24:10;;;;;;;22.53;8.57;;;;;;;15.22;58.34;101947.19;5047227;28;20021;-65
2023/03/20 09:26:36;;;;;;;23.13;9.33;;;;;;;14.73;60.31;101959.09;5048572;28;20029;-65
2023/03/20 09:29:02;;;;;;;25.43;9.67;;;;;;;15.75;57.18;101955.28;5047429;28;20043;-65
2023/03/20 09:31:27;;;;;;;22.40;9.57;;;;;;;15.53;57.48;101959.13;5047696;28;20657;-65
2023/03/20 09:33:52;;;;;;;23.47;9.13;;;;;;;15.84;56.70;101950.81;5048355;28;20435;-65
2023/03/20 09:36:18;;;;;;;27.67;10.53;;;;;;;14.64;60.75;101961.81;5048920;28;20469;-65
2023/03/20 09:38:43;;;;;;;18.10;8.90;;;;;;;13.65;64.97;101965.09;5047671;28;20477;-65
2023/03/20 09:41:25;;;;;;;24.70;9.73;;;;;;;14.61;61.75;101959.19;5047564;28;20029;-65
2023/03/20 09:44:44;;;;;;;28.80;10.45;;;;;;;14.88;62.17;101959.84;5047321;28;20374;-65
2023/03/20 09:47:25;;;;;;;24.27;10.43;;;;;;;14.59;63.36;101960.97;5029308;28;20052;-64
2023/03/20 09:50:03;;;;;;;25.63;10.57;;;;;;;15.70;60.52;101954.50;5048524;28;20108;-64
2023/03/20 09:52:33;;;;;;;33.70;11.43;;;;;;;15.01;62.01;101955.31;5049102;28;20033;-64
2023/03/20 09:55:05;;;;;;;31.83;11.73;;;;;;;14.61;60.58;101960.94;5048351;28;20052;-64
2023/03/20 09:57:50;;;;;;;25.65;10.35;;;;;;;15.18;60.63;101963.91;5064240;28;20021;-64
2023/03/20 10:00:23;;;;;;;29.17;12.43;;;;;;;15.41;62.92;101966.28;5048289;28;20027;-65
2023/03/20 10:02:52;;;;;;;27.87;12.30;;;;;;;15.74;58.76;101952.66;5046438;28;20439;-64
2023/03/20 10:05:27;;;;;;;36.47;12.30;;;;;;;15.23;60.29;101966.50;5048265;28;20025;-64
2023/03/20 10:08:02;;;;;;;29.80;12.87;;;;;;;15.34;60.94;101961.97;5048443;28;20024;-65
2023/03/20 10:10:48;;;;;;;23.83;12.90;;;;;;;16.35;58.02;101950.91;5046035;28;20036;-65
2023/03/20 10:13:37;;;;;;;26.57;11.67;;;;;;;15.25;60.59;101959.47;5048419;28;20163;-65
2023/03/20 10:16:03;;;;;;;28.13;12.10;;;;;;;14.88;61.53;101958.09;5047659;28;20536;-64
2023/03/20 10:18:32;;;;;;;28.03;12.07;;;;;;;14.47;61.28;101950.56;5047611;28;20392;-64
2023/03/20 10:21:03;;;;;;;32.53;13.70;;;;;;;15.10;61.66;101958.72;5046821;28;20024;-64
2023/03/20 10:23:45;;;;;;;28.17;12.67;;;;;;;15.75;59.60;101947.38;5047800;28;20029;-65
2023/03/20 10:26:13;;;;;;;28.20;12.70;;;;;;;15.41;59.57;101947.84;5048210;28;20025;-65
2023/03/20 10:28:50;;;;;;;26.87;13.83;;;;;;;15.55;60.06;101950.31;5052896;28;20021;-65
2023/03/20 10:31:20;;;;;;;24.93;13.70;;;;;;;14.90;61.24;101945.75;5050399;28;20097;-65
2023/03/20 10:33:59;;;;;;;27.43;12.27;;;;;;;15.17;59.51;101942.88;5050933;28;20028;-65
2023/03/20 10:36:46;;;;;;;27.80;12.83;;;;;;;15.18;58.71;101939.31;5051357;28;20065;-64
2023/03/20 10:39:34;;;;;;;26.93;13.20;;;;;;;15.18;59.61;101936.69;5052055;28;20031;-65
2023/03/20 10:42:03;;;;;;;24.83;12.23;;;;;;;15.54;57.83;101939.78;5051012;28;20037;-65
2023/03/20 10:44:42;;;;;;;25.23;12.13;;;;;;;15.27;60.40;101939.22;5051707;28;20104;-65
2023/03/20 10:47:16;;;;;;;27.20;12.97;;;;;;;15.06;61.83;101935.94;5050115;28;20052;-65
2023/03/20 10:49:47;;;;;;;26.93;13.57;;;;;;;15.06;60.25;101935.94;5067810;28;20029;-65
2023/03/20 10:52:19;;;;;;;21.33;11.20;;;;;;;14.98;60.53;101931.66;5049749;28;20024;-65
2023/03/20 10:54:59;;;;;;;28.23;11.88;;;;;;;14.66;61.97;101935.47;5051046;28;20029;-65
2023/03/20 10:57:28;;;;;;;23.57;12.50;;;;;;;15.41;59.75;101929.41;5049899;28;20037;-66
2023/03/20 10:59:55;;;;;;;23.90;12.50;;;;;;;15.67;57.70;101927.31;5050390;28;20021;-65
2023/03/20 11:02:26;;;;;;;26.13;12.27;;;;;;;15.65;58.17;101919.41;5066891;28;20060;-65
2023/03/20 11:04:52;;;;;;;22.03;11.90;;;;;;;15.71;56.83;101913.19;5051070;28;20132;-65
2023/03/20 11:07:23;;;;;;;30.90;12.33;;;;;;;15.20;58.96;101927.03;5050210;28;20116;-66
2023/03/20 11:10:04;;;;;;;26.30;11.70;;;;;;;14.59;60.66;101914.47;5051726;28;20043;-66
2023/03/20 11:12:44;;;;;;;30.57;11.60;;;;;;;14.82;62.25;101916.00;5049991;28;20051;-66
2023/03/20 11:15:13;;;;;;;30.17;12.10;;;;;;;15.09;61.18;101909.56;5051192;28;20029;-66
2023/03/20 11:17:38;;;;;;;26.17;12.63;;;;;;;15.66;59.48;101896.56;5050427;28;20067;-66
2023/03/20 11:20:04;;;;;;;34.50;12.83;;;;;;;16.01;57.87;101890.78;5048731;28;20484;-66
2023/03/20 11:22:30;;;;;;;30.83;12.37;;;;;;;16.05;58.71;101887.22;5067108;28;20033;-66